Time;durP1;ratioP1;P1;durP2;ratioP2;P2;SDS_P1;SDS_P2;PMS_P1;PMS_P2;Temp;Humidity;BMP_temperature;BMP_pressure;BME280_temperature;BME280_humidity;BME280_pressure;Samples;Min_cycle;Max_cycle;Signal;HPM_P1;HPM_P2
2024/04/16 04:02:53;;;;;;;1.40;1.30;;;6.20;97.30;;;;;;5285913;27;20522;-67
2024/04/16 04:05:19;;;;;;;1.50;1.40;;;6.20;97.30;;;;;;5288272;27;20472;-68
2024/04/16 04:07:45;;;;;;;1.70;1.60;;;6.10;97.30;;;;;;5257181;27;20283;-66
2024/04/16 04:10:10;;;;;;;1.30;1.20;;;6.10;97.30;;;;;;5286976;27;20229;-67
2024/04/16 04:12:35;;;;;;;1.17;1.07;;;6.00;97.30;;;;;;5286901;27;20224;-67
2024/04/16 04:15:03;;;;;;;1.10;1.03;;;6.00;97.30;;;;;;5305429;27;20296;-74
2024/04/16 04:17:29;;;;;;;1.00;0.90;;;6.00;97.30;;;;;;5306754;26;20275;-66
2024/04/16 04:19:54;;;;;;;2.00;1.90;;;6.10;97.30;;;;;;5300732;27;20470;-67
2024/04/16 04:22:20;;;;;;;0.90;0.80;;;6.10;97.30;;;;;;5297174;27;20248;-67
2024/04/16 04:24:45;;;;;;;1.23;1.13;;;6.10;97.30;;;;;;5304785;26;20236;-75
2024/04/16 04:27:11;;;;;;;1.00;0.90;;;6.10;97.30;;;;;;5296414;27;20236;-70
2024/04/16 04:29:38;;;;;;;0.90;0.80;;;6.00;97.30;;;;;;5304976;27;20643;-69
2024/04/16 04:32:04;;;;;;;1.10;1.10;;;6.00;97.30;;;;;;5279076;27;20244;-69
2024/04/16 04:34:30;;;;;;;1.27;1.17;;;6.00;97.30;;;;;;5305471;27;20466;-66
2024/04/16 04:36:55;;;;;;;2.97;2.83;;;6.00;97.30;;;;;;5290326;27;20283;-68
2024/04/16 04:39:21;;;;;;;1.07;0.97;;;5.90;97.30;;;;;;5304543;27;20354;-67
2024/04/16 04:41:46;;;;;;;1.00;0.90;;;6.00;97.30;;;;;;5292133;26;20236;-69
2024/04/16 04:44:12;;;;;;;1.00;0.90;;;6.00;97.30;;;;;;5305212;27;20236;-68
2024/04/16 04:46:37;;;;;;;1.00;0.90;;;6.00;97.30;;;;;;5292719;27;20720;-68
2024/04/16 04:49:03;;;;;;;1.23;1.13;;;6.00;97.30;;;;;;5292901;27;20764;-68
2024/04/16 04:51:28;;;;;;;1.00;1.00;;;6.00;97.30;;;;;;5299133;27;20244;-68
2024/04/16 04:53:54;;;;;;;1.10;1.00;;;6.00;97.30;;;;;;5301887;27;20303;-69
2024/04/16 04:56:19;;;;;;;3.23;1.47;;;6.00;97.30;;;;;;5305018;27;20228;-69
2024/04/16 04:58:45;;;;;;;1.13;1.03;;;6.00;97.30;;;;;;5297478;26;20243;-69
2024/04/16 05:01:10;;;;;;;1.63;1.53;;;6.00;97.30;;;;;;5296039;27;20336;-73
2024/04/16 05:03:36;;;;;;;1.20;1.10;;;6.10;97.30;;;;;;5281448;27;20684;-70
2024/04/16 05:06:01;;;;;;;0.97;0.87;;;6.10;97.30;;;;;;5288025;27;20831;-71
2024/04/16 05:08:28;;;;;;;1.10;1.00;;;6.10;97.30;;;;;;5289910;27;20890;-70
2024/04/16 05:10:54;;;;;;;6.23;1.90;;;6.10;97.30;;;;;;5301336;26;20345;-70
2024/04/16 05:13:19;;;;;;;0.97;0.87;;;6.20;97.30;;;;;;5290397;27;20475;-70
2024/04/16 05:15:45;;;;;;;0.90;0.80;;;6.20;97.30;;;;;;5304269;27;20728;-70
2024/04/16 05:18:11;;;;;;;0.93;0.83;;;6.30;97.30;;;;;;5290429;27;20455;-70
2024/04/16 05:20:37;;;;;;;1.00;0.90;;;6.30;97.30;;;;;;5306484;26;20531;-70
2024/04/16 05:23:03;;;;;;;1.20;1.10;;;6.30;97.30;;;;;;5292188;27;20478;-70
2024/04/16 05:25:28;;;;;;;1.60;1.50;;;6.30;97.30;;;;;;5304828;27;20236;-69
2024/04/16 05:27:54;;;;;;;1.00;0.90;;;6.40;97.30;;;;;;5306503;27;20244;-68
2024/04/16 05:30:19;;;;;;;1.00;0.90;;;6.40;97.30;;;;;;5299362;27;20276;-70
2024/04/16 05:32:45;;;;;;;0.90;0.80;;;6.40;97.30;;;;;;5286842;27;20333;-72
2024/04/16 05:35:10;;;;;;;0.90;0.80;;;6.50;97.30;;;;;;5299668;27;20585;-75
2024/04/16 05:37:36;;;;;;;1.00;0.90;;;6.50;97.30;;;;;;5294515;27;20277;-71
2024/04/16 05:40:02;;;;;;;1.00;0.90;;;6.50;97.30;;;;;;5306983;27;20732;-67
2024/04/16 05:42:28;;;;;;;1.20;1.10;;;6.50;97.30;;;;;;5296618;26;20557;-68
2024/04/16 05:44:53;;;;;;;1.83;1.33;;;6.50;97.30;;;;;;5286046;27;20619;-68
2024/04/16 05:47:19;;;;;;;1.40;1.30;;;6.50;97.30;;;;;;5286086;27;20323;-72
2024/04/16 05:49:44;;;;;;;1.27;1.17;;;6.50;97.30;;;;;;5296713;27;20322;-75
2024/04/16 05:52:10;;;;;;;1.10;1.00;;;6.50;97.30;;;;;;5304059;26;20240;-70
2024/04/16 05:54:37;;;;;;;1.00;0.90;;;6.60;97.30;;;;;;5291792;26;20240;-76
2024/04/16 05:57:03;;;;;;;0.90;0.80;;;6.60;97.30;;;;;;5303699;27;20514;-69
2024/04/16 05:59:29;;;;;;;2.03;1.67;;;6.60;97.30;;;;;;5298200;27;20267;-73
2024/04/16 06:01:54;;;;;;;4.23;1.30;;;6.60;97.30;;;;;;5294495;27;20483;-68
2024/04/16 06:04:20;;;;;;;1.47;1.37;;;6.60;97.30;;;;;;5271514;27;20245;-69
2024/04/16 06:06:45;;;;;;;1.20;1.10;;;6.60;97.30;;;;;;5283263;27;20278;-67
2024/04/16 06:09:11;;;;;;;1.23;1.20;;;6.70;97.30;;;;;;5300748;27;20270;-68
2024/04/16 06:11:36;;;;;;;1.20;1.10;;;6.80;97.30;;;;;;5305499;27;20296;-67
2024/04/16 06:14:02;;;;;;;1.17;1.13;;;6.90;97.30;;;;;;5277380;27;20328;-70
2024/04/16 06:16:27;;;;;;;2.17;2.00;;;7.10;97.30;;;;;;5292540;27;20248;-72
2024/04/16 06:18:53;;;;;;;1.43;1.33;;;7.20;97.30;;;;;;5285462;27;20243;-72
2024/04/16 06:21:19;;;;;;;2.40;1.70;;;7.30;97.30;;;;;;5304070;27;20259;-70
2024/04/16 06:23:45;;;;;;;1.10;1.00;;;7.30;97.20;;;;;;5289781;26;20280;-73
2024/04/16 06:26:11;;;;;;;0.97;0.90;;;7.40;96.80;;;;;;5304988;26;20232;-73
2024/04/16 06:28:38;;;;;;;1.10;1.00;;;7.50;96.90;;;;;;5305363;27;20511;-67
2024/04/16 06:31:03;;;;;;;0.90;0.80;;;7.50;96.40;;;;;;5303151;27;21142;-67
2024/04/16 06:33:29;;;;;;;1.23;1.13;;;7.50;96.00;;;;;;5293442;27;20472;-78
2024/04/16 06:35:55;;;;;;;1.20;1.10;;;7.50;96.00;;;;;;5284823;27;20240;-67
2024/04/16 06:38:26;;;;;;;1.80;1.07;;;7.50;95.70;;;;;;5292886;27;20482;-66
2024/04/16 06:40:52;;;;;;;1.47;1.30;;;7.50;95.20;;;;;;5297495;27;20245;-69
2024/04/16 06:43:17;;;;;;;1.10;1.00;;;7.60;95.40;;;;;;5270109;27;20525;-66
2024/04/16 06:45:43;;;;;;;0.90;0.80;;;7.70;95.30;;;;;;5298239;27;20262;-71
2024/04/16 06:48:09;;;;;;;1.07;0.97;;;8.00;95.70;;;;;;5299585;26;20291;-66
2024/04/16 06:50:35;;;;;;;1.33;1.23;;;8.20;94.90;;;;;;5281586;27;20286;-69
2024/04/16 06:53:00;;;;;;;2.30;1.10;;;8.30;94.40;;;;;;5290884;26;20274;-70
2024/04/16 06:55:26;;;;;;;0.90;0.80;;;8.20;94.00;;;;;;5303408;27;20983;-68
2024/04/16 06:57:51;;;;;;;1.00;0.90;;;8.20;93.90;;;;;;5288621;27;20237;-72
2024/04/16 07:00:17;;;;;;;19.73;3.33;;;8.30;94.00;;;;;;5290686;26;20346;-74
2024/04/16 07:02:42;;;;;;;1.00;0.90;;;8.40;94.00;;;;;;5288957;27;20378;-71
2024/04/16 07:05:09;;;;;;;0.90;0.80;;;8.60;93.10;;;;;;5288622;27;20248;-74
2024/04/16 07:07:36;;;;;;;5.17;1.77;;;8.70;93.50;;;;;;5290488;26;20286;-69
2024/04/16 07:10:02;;;;;;;1.10;1.00;;;8.60;91.80;;;;;;5271689;27;20543;-75
2024/04/16 07:12:28;;;;;;;1.13;1.03;;;8.60;92.50;;;;;;5290045;26;20534;-68
2024/04/16 07:14:53;;;;;;;1.00;0.90;;;8.50;92.50;;;;;;5275847;26;20287;-70
2024/04/16 07:17:19;;;;;;;1.07;1.00;;;8.50;92.60;;;;;;5297606;27;20853;-72
2024/04/16 07:19:44;;;;;;;1.00;0.90;;;8.60;91.90;;;;;;5287554;27;20574;-73
2024/04/16 07:22:10;;;;;;;1.60;1.57;;;8.60;91.60;;;;;;5291925;27;20248;-77
2024/04/16 07:24:35;;;;;;;1.00;0.90;;;8.70;91.40;;;;;;5307621;27;20651;-66
2024/04/16 07:27:01;;;;;;;1.20;1.10;;;8.70;91.40;;;;;;5305368;27;20336;-74
2024/04/16 07:29:26;;;;;;;1.00;0.90;;;8.70;90.80;;;;;;5304077;26;20661;-74
2024/04/16 07:31:52;;;;;;;0.80;0.80;;;8.60;90.10;;;;;;5305347;26;20286;-71
2024/04/16 07:34:17;;;;;;;1.00;0.90;;;8.40;90.40;;;;;;5298931;26;20343;-67
2024/04/16 07:36:43;;;;;;;6.20;1.50;;;8.40;91.00;;;;;;5299296;26;20237;-79
2024/04/16 07:39:10;;;;;;;1.00;0.90;;;8.40;91.30;;;;;;5294346;26;20262;-64
2024/04/16 07:41:35;;;;;;;1.00;0.97;;;8.40;91.10;;;;;;5307356;26;20272;-71
2024/04/16 07:44:01;;;;;;;1.37;1.27;;;8.60;91.70;;;;;;5307110;27;20515;-71
2024/04/16 07:46:27;;;;;;;1.00;0.90;;;8.70;91.50;;;;;;5305063;27;20557;-70
2024/04/16 07:48:52;;;;;;;1.53;1.43;;;8.80;91.40;;;;;;5292744;27;20332;-74
2024/04/16 07:51:18;;;;;;;1.17;1.00;;;8.80;90.80;;;;;;5278975;27;20286;-78
2024/04/16 07:53:43;;;;;;;2.83;1.10;;;8.80;90.60;;;;;;5295055;26;20237;-77
2024/04/16 07:56:09;;;;;;;1.10;1.00;;;8.70;91.00;;;;;;5290698;27;20592;-64
2024/04/16 07:58:34;;;;;;;1.20;1.10;;;8.70;91.20;;;;;;5297123;26;20268;-70
2024/04/16 08:01:00;;;;;;;3.03;1.10;;;8.80;90.80;;;;;;5300595;27;20236;-69
2024/04/16 08:03:25;;;;;;;1.07;0.97;;;8.90;90.50;;;;;;5292975;27;20232;-69
2024/04/16 08:05:51;;;;;;;1.00;0.90;;;9.10;91.20;;;;;;5292876;26;20282;-77
2024/04/16 08:08:17;;;;;;;2.77;1.67;;;9.20;90.00;;;;;;5304959;27;20742;-71
2024/04/16 08:10:42;;;;;;;0.90;0.80;;;9.10;89.90;;;;;;5279688;27;20238;-71
2024/04/16 08:13:08;;;;;;;5.33;1.00;;;9.00;89.30;;;;;;5301901;27;20236;-74
2024/04/16 08:15:33;;;;;;;3.37;3.17;;;9.10;90.40;;;;;;5306847;27;20282;-71
2024/04/16 08:17:59;;;;;;;1.87;1.77;;;9.10;89.50;;;;;;5276640;27;20312;-73
2024/04/16 08:20:25;;;;;;;8.90;1.10;;;9.00;89.20;;;;;;5283762;27;20237;-72
2024/04/16 08:22:51;;;;;;;0.97;0.87;;;9.00;89.20;;;;;;5299837;27;21081;-71
2024/04/16 08:25:16;;;;;;;0.80;0.70;;;9.30;89.20;;;;;;5306989;26;20232;-70
2024/04/16 08:27:42;;;;;;;2.50;1.00;;;9.90;90.80;;;;;;5295758;26;20513;-70
2024/04/16 08:30:09;;;;;;;0.83;0.77;;;10.20;87.50;;;;;;5301700;27;20333;-68
2024/04/16 08:32:34;;;;;;;2.00;1.10;;;10.20;86.40;;;;;;5305171;27;20515;-71
2024/04/16 08:35:00;;;;;;;0.80;0.80;;;10.30;86.90;;;;;;5293173;27;21022;-66
2024/04/16 08:37:25;;;;;;;0.70;0.70;;;10.20;85.60;;;;;;5305706;27;20224;-68
2024/04/16 08:39:51;;;;;;;2.93;2.73;;;10.20;85.90;;;;;;5293508;27;20644;-72
2024/04/16 08:42:18;;;;;;;6.20;3.43;;;10.20;85.40;;;;;;5315615;26;20236;-71
2024/04/16 08:44:45;;;;;;;1.20;1.10;;;10.30;85.60;;;;;;5293584;27;20809;-68
2024/04/16 08:47:12;;;;;;;3.03;1.30;;;10.50;85.70;;;;;;5300897;27;20451;-72
2024/04/16 08:49:40;;;;;;;2.17;1.00;;;10.30;85.60;;;;;;5308954;26;20470;-71
2024/04/16 08:52:07;;;;;;;1.03;0.93;;;10.00;85.60;;;;;;5304327;26;20475;-67
2024/04/16 08:54:36;;;;;;;1.00;0.90;;;9.80;86.40;;;;;;5272450;27;20476;-72
2024/04/16 08:57:03;;;;;;;1.40;1.30;;;9.60;86.70;;;;;;5300157;27;20562;-67
2024/04/16 08:59:28;;;;;;;0.90;0.80;;;9.40;86.90;;;;;;5306632;26;20455;-68
2024/04/16 09:01:55;;;;;;;0.90;0.80;;;9.10;87.00;;;;;;5292027;26;20820;-70
2024/04/16 09:04:22;;;;;;;1.73;1.67;;;9.10;88.00;;;;;;5304283;27;20236;-69
2024/04/16 09:06:48;;;;;;;1.00;0.90;;;9.00;88.30;;;;;;5280659;26;20468;-73
2024/04/16 09:09:14;;;;;;;2.30;1.13;;;9.00;88.40;;;;;;5302716;27;20524;-73
2024/04/16 09:11:45;;;;;;;1.00;0.90;;;9.10;88.60;;;;;;5292483;27;20463;-68
2024/04/16 09:14:10;;;;;;;1.00;0.90;;;9.10;88.70;;;;;;5287124;27;20240;-68
2024/04/16 09:16:37;;;;;;;0.90;0.80;;;9.10;87.80;;;;;;5270652;27;20560;-75
2024/04/16 09:19:10;;;;;;;0.90;0.80;;;9.20;88.40;;;;;;5299138;27;20237;-69
2024/04/16 09:21:36;;;;;;;1.00;0.90;;;9.20;88.40;;;;;;5283682;26;20520;-70
2024/04/16 09:24:05;;;;;;;1.10;1.00;;;9.30;88.40;;;;;;5284813;27;20476;-75
2024/04/16 09:26:34;;;;;;;0.90;0.80;;;9.30;88.60;;;;;;5306674;26;20236;-77
2024/04/16 09:28:59;;;;;;;2.40;1.53;;;9.40;88.90;;;;;;5303946;27;20522;-72
2024/04/16 09:31:25;;;;;;;1.30;1.20;;;9.20;88.10;;;;;;5300107;27;21274;-69
2024/04/16 09:33:51;;;;;;;1.20;1.10;;;9.20;88.70;;;;;;5297637;27;20280;-71
2024/04/16 09:36:17;;;;;;;0.93;0.87;;;9.20;88.60;;;;;;5284208;26;20263;-71
2024/04/16 09:38:43;;;;;;;1.33;1.23;;;9.30;88.70;;;;;;5272351;27;20568;-72
2024/04/16 09:41:11;;;;;;;0.70;0.70;;;9.40;88.70;;;;;;5284300;27;20288;-70
2024/04/16 09:43:40;;;;;;;1.00;0.90;;;9.30;88.60;;;;;;5292903;27;20757;-83
2024/04/16 09:46:15;;;;;;;0.90;0.80;;;9.30;88.80;;;;;;5304438;26;20515;-73
2024/04/16 09:48:42;;;;;;;0.70;0.70;;;9.30;88.40;;;;;;5283688;27;20515;-76
2024/04/16 09:51:08;;;;;;;1.20;0.90;;;9.40;88.70;;;;;;5295991;27;20546;-72
2024/04/16 09:53:39;;;;;;;0.70;0.70;;;9.60;89.40;;;;;;5284475;27;20512;-66
2024/04/16 09:56:05;;;;;;;0.90;0.80;;;9.60;88.50;;;;;;5296679;27;20523;-75
2024/04/16 09:58:33;;;;;;;0.90;0.80;;;9.50;88.50;;;;;;5289922;27;20519;-67
2024/04/16 10:01:00;;;;;;;0.90;0.80;;;9.40;88.50;;;;;;5283949;27;20480;-69
2024/04/16 10:03:30;;;;;;;0.80;0.80;;;9.30;89.00;;;;;;5290749;27;20470;-72
2024/04/16 10:05:56;;;;;;;1.80;1.60;;;9.00;90.50;;;;;;5277369;27;20516;-67
2024/04/16 10:08:24;;;;;;;0.70;0.70;;;8.90;92.20;;;;;;5287712;26;21139;-68
2024/04/16 10:10:55;;;;;;;0.80;0.80;;;8.90;93.60;;;;;;5305803;26;20478;-70
2024/04/16 10:13:34;;;;;;;0.70;0.70;;;9.10;94.00;;;;;;5300521;21;21083;-84
2024/04/16 10:16:02;;;;;;;0.90;0.80;;;9.40;92.50;;;;;;5370031;26;20461;-84
2024/04/16 10:18:30;;;;;;;0.70;0.70;;;9.90;91.60;;;;;;5341342;26;20542;-83
2024/04/16 10:20:58;;;;;;;0.90;0.80;;;10.20;89.00;;;;;;5369989;26;20590;-84
2024/04/16 10:23:23;;;;;;;1.00;0.90;;;10.30;87.60;;;;;;5370769;26;20493;-83
2024/04/16 10:25:52;;;;;;;0.90;0.80;;;10.30;87.20;;;;;;5349462;26;20567;-84
2024/04/16 10:28:26;;;;;;;0.80;0.70;;;10.20;87.10;;;;;;5336706;21;20263;-67
2024/04/16 10:31:02;;;;;;;0.93;0.87;;;10.20;86.80;;;;;;5320916;26;20484;-68
2024/04/16 10:33:32;;;;;;;0.90;0.80;;;10.20;87.70;;;;;;5274484;27;20607;-76
2024/04/16 10:35:58;;;;;;;0.90;0.80;;;10.20;86.40;;;;;;5305340;26;20554;-68
2024/04/16 10:38:24;;;;;;;4.70;1.00;;;10.20;86.60;;;;;;5274079;26;21547;-72
2024/04/16 10:40:57;;;;;;;1.03;1.00;;;10.30;87.20;;;;;;5304796;26;20311;-68
2024/04/16 10:43:26;;;;;;;0.90;0.80;;;10.20;85.80;;;;;;5274276;26;20474;-71
2024/04/16 10:45:53;;;;;;;0.83;0.77;;;10.10;86.60;;;;;;5304677;26;20462;-73
2024/04/16 10:48:20;;;;;;;0.77;0.70;;;10.10;86.70;;;;;;5308162;26;20945;-69
2024/04/16 10:50:47;;;;;;;1.07;0.97;;;10.00;86.70;;;;;;5284607;27;20537;-73
2024/04/16 10:53:14;;;;;;;0.93;0.87;;;10.10;87.00;;;;;;5323958;26;20512;-65
2024/04/16 10:55:42;;;;;;;1.00;0.90;;;10.20;86.60;;;;;;5312081;26;20475;-71
2024/04/16 10:58:10;;;;;;;0.90;0.80;;;10.20;86.70;;;;;;5326175;26;20461;-72
2024/04/16 11:00:36;;;;;;;1.63;1.53;;;10.30;87.10;;;;;;5281772;27;20601;-71
2024/04/16 11:03:02;;;;;;;1.00;0.90;;;10.30;87.30;;;;;;5252256;27;20486;-68
2024/04/16 11:05:28;;;;;;;1.00;0.90;;;10.30;86.40;;;;;;5347940;26;21033;-74
2024/04/16 11:07:53;;;;;;;0.90;0.80;;;10.20;86.90;;;;;;5310175;26;20467;-70
2024/04/16 11:10:19;;;;;;;0.73;0.67;;;10.30;87.30;;;;;;5277545;26;20299;-70
2024/04/16 11:12:45;;;;;;;0.90;0.80;;;10.40;87.80;;;;;;5289834;27;20453;-72
2024/04/16 11:15:11;;;;;;;0.77;0.73;;;10.30;86.80;;;;;;5306181;26;20870;-75
2024/04/16 11:17:36;;;;;;;0.73;0.70;;;10.20;86.70;;;;;;5312467;26;20232;-72
2024/04/16 11:20:03;;;;;;;0.90;0.80;;;10.20;87.40;;;;;;5280974;27;20271;-73
2024/04/16 11:22:29;;;;;;;0.80;0.70;;;10.30;87.70;;;;;;5281082;26;20247;-71
2024/04/16 11:24:55;;;;;;;0.90;0.80;;;10.30;87.30;;;;;;5289751;27;21123;-73
2024/04/16 11:27:22;;;;;;;1.00;1.00;;;10.50;87.40;;;;;;5308281;26;20530;-77
2024/04/16 11:29:50;;;;;;;0.90;0.80;;;11.10;87.10;;;;;;5326040;26;20530;-71
2024/04/16 11:32:16;;;;;;;0.90;0.80;;;11.40;85.50;;;;;;5295452;26;20807;-72
2024/04/16 11:34:43;;;;;;;22.87;1.47;;;11.40;85.10;;;;;;5281819;27;20571;-68
2024/04/16 11:37:09;;;;;;;4.30;1.23;;;11.30;85.60;;;;;;5311527;26;20466;-76
2024/04/16 11:39:40;;;;;;;1.10;1.00;;;11.30;84.50;;;;;;5311359;26;20732;-66
2024/04/16 11:42:07;;;;;;;0.70;0.70;;;11.70;85.10;;;;;;5325424;26;20463;-73
2024/04/16 11:44:38;;;;;;;0.70;0.70;;;12.00;84.20;;;;;;5300582;26;21425;-71
2024/04/16 11:47:05;;;;;;;0.80;0.80;;;12.40;83.90;;;;;;5314899;26;20504;-69
2024/04/16 11:49:31;;;;;;;0.90;0.80;;;12.80;84.70;;;;;;5315098;26;20527;-74
2024/04/16 11:51:56;;;;;;;1.20;1.13;;;13.30;83.50;;;;;;5320050;26;20463;-70
2024/04/16 11:54:22;;;;;;;1.27;1.17;;;13.40;80.50;;;;;;5340160;26;20555;-69
2024/04/16 11:56:48;;;;;;;0.90;0.80;;;13.50;80.70;;;;;;5319722;26;20528;-69
2024/04/16 11:59:13;;;;;;;0.70;0.70;;;13.60;80.30;;;;;;5300547;26;20277;-71
2024/04/16 12:01:39;;;;;;;0.90;0.80;;;13.80;81.10;;;;;;5325908;26;20365;-67
2024/04/16 12:04:07;;;;;;;0.90;0.80;;;14.10;80.00;;;;;;5277983;27;20231;-75
2024/04/16 12:06:32;;;;;;;1.53;1.33;;;13.70;78.90;;;;;;5307353;26;20236;-70
2024/04/16 12:08:58;;;;;;;1.10;1.00;;;13.10;79.60;;;;;;5307276;26;21065;-72
2024/04/16 12:11:23;;;;;;;0.90;0.80;;;12.90;81.20;;;;;;5262768;26;20637;-70
2024/04/16 12:13:49;;;;;;;1.67;1.57;;;12.60;80.70;;;;;;5321769;26;20236;-70
2024/04/16 12:16:14;;;;;;;0.90;0.80;;;12.20;82.10;;;;;;5306856;26;20325;-66
2024/04/16 12:18:40;;;;;;;1.57;1.33;;;11.90;82.60;;;;;;5276852;27;20278;-68
2024/04/16 12:21:06;;;;;;;1.47;1.00;;;11.60;83.50;;;;;;5307357;26;20692;-69
2024/04/16 12:23:32;;;;;;;2.50;1.20;;;11.20;85.10;;;;;;5274648;26;20278;-72
2024/04/16 12:25:59;;;;;;;0.90;0.87;;;10.90;86.80;;;;;;5303713;26;20232;-74
2024/04/16 12:28:25;;;;;;;1.10;1.00;;;10.70;88.90;;;;;;5297318;26;20472;-64
2024/04/16 12:30:50;;;;;;;1.00;0.90;;;10.20;94.70;;;;;;5274049;27;20589;-66
2024/04/16 12:33:16;;;;;;;1.00;0.90;;;9.70;97.30;;;;;;5275849;26;20288;-65
2024/04/16 12:35:43;;;;;;;0.90;0.80;;;9.50;97.30;;;;;;5276583;27;20262;-68
2024/04/16 12:38:08;;;;;;;0.70;0.70;;;9.40;97.30;;;;;;5276506;27;20467;-66
2024/04/16 12:40:34;;;;;;;1.10;1.00;;;9.70;97.30;;;;;;5306274;26;20578;-66
2024/04/16 12:43:00;;;;;;;1.00;0.90;;;10.50;97.30;;;;;;5270643;27;20267;-67
2024/04/16 12:45:25;;;;;;;0.93;0.83;;;11.30;97.30;;;;;;5318259;26;20457;-65
2024/04/16 12:47:51;;;;;;;1.30;1.20;;;11.90;97.30;;;;;;5306102;26;20235;-67
2024/04/16 12:50:17;;;;;;;5.00;1.37;;;12.20;96.80;;;;;;5306269;26;20225;-65
2024/04/16 12:52:42;;;;;;;1.90;1.87;;;12.50;93.50;;;;;;5306085;26;20244;-65
2024/04/16 12:55:08;;;;;;;1.27;1.17;;;12.90;95.40;;;;;;5306076;26;20279;-67
2024/04/16 12:57:34;;;;;;;6.10;1.83;;;13.40;94.90;;;;;;5288609;26;20335;-67
2024/04/16 12:59:59;;;;;;;1.10;1.00;;;13.70;92.00;;;;;;5289824;27;20271;-66
2024/04/16 13:02:25;;;;;;;0.73;0.70;;;13.80;89.30;;;;;;5305027;26;20370;-67
2024/04/16 13:04:50;;;;;;;0.90;0.80;;;14.10;89.80;;;;;;5306215;26;20224;-65
2024/04/16 13:07:17;;;;;;;0.70;0.70;;;14.20;89.70;;;;;;5305789;26;20239;-67
2024/04/16 13:09:44;;;;;;;0.70;0.70;;;14.20;87.70;;;;;;5305820;26;20274;-66
2024/04/16 13:12:09;;;;;;;8.20;1.23;;;14.10;87.00;;;;;;5306227;26;20463;-68
2024/04/16 13:14:35;;;;;;;1.00;0.90;;;14.50;85.10;;;;;;5275967;26;20543;-69
2024/04/16 13:17:00;;;;;;;6.73;1.33;;;15.10;87.10;;;;;;5275797;27;20350;-67
2024/04/16 13:19:26;;;;;;;0.90;0.80;;;15.50;84.10;;;;;;5305691;26;20567;-66
2024/04/16 13:21:51;;;;;;;0.70;0.70;;;15.20;83.80;;;;;;5306130;26;20232;-65
2024/04/16 13:24:17;;;;;;;1.37;1.03;;;14.50;83.30;;;;;;5289671;26;20282;-67
2024/04/16 13:26:42;;;;;;;1.00;0.90;;;13.50;83.30;;;;;;5312149;26;20231;-67
2024/04/16 13:29:08;;;;;;;0.90;0.80;;;12.80;85.40;;;;;;5263904;27;20275;-68
2024/04/16 13:31:33;;;;;;;0.70;0.70;;;12.30;85.50;;;;;;5269466;27;20245;-67
2024/04/16 13:33:59;;;;;;;2.57;1.20;;;11.90;86.60;;;;;;5285927;27;20225;-73
2024/04/16 13:36:26;;;;;;;1.23;1.00;;;11.50;88.80;;;;;;5266061;27;20226;-67
2024/04/16 13:38:52;;;;;;;0.90;0.80;;;10.90;91.40;;;;;;5283751;27;20260;-69
2024/04/16 13:41:18;;;;;;;3.33;1.33;;;10.40;96.20;;;;;;5285609;27;20463;-68
2024/04/16 13:43:43;;;;;;;11.73;1.13;;;10.10;97.30;;;;;;5276556;27;20464;-67
2024/04/16 13:46:09;;;;;;;4.70;1.40;;;10.10;97.30;;;;;;5270377;27;20955;-67
2024/04/16 13:48:34;;;;;;;2.57;1.37;;;10.30;97.30;;;;;;5270785;27;20577;-67
2024/04/16 13:51:03;;;;;;;0.90;0.80;;;10.90;97.30;;;;;;5270982;27;20675;-67
2024/04/16 13:53:29;;;;;;;1.20;1.10;;;12.00;97.30;;;;;;5272720;27;20830;-68
2024/04/16 13:55:54;;;;;;;0.90;0.80;;;12.50;95.80;;;;;;5273310;27;20468;-68
2024/04/16 13:58:20;;;;;;;0.90;0.80;;;12.80;92.80;;;;;;5272757;27;20355;-69
2024/04/16 14:00:46;;;;;;;0.90;0.80;;;12.70;91.90;;;;;;5273066;27;20283;-68
2024/04/16 14:03:11;;;;;;;1.00;0.90;;;12.20;91.40;;;;;;5272893;27;20233;-67
2024/04/16 14:05:37;;;;;;;1.10;1.00;;;11.80;93.40;;;;;;5273033;27;20276;-68
2024/04/16 14:08:03;;;;;;;0.90;0.80;;;11.50;92.20;;;;;;5270005;27;20640;-69
2024/04/16 14:10:29;;;;;;;1.20;1.10;;;11.10;92.50;;;;;;5272727;27;20241;-66
2024/04/16 14:12:54;;;;;;;1.10;1.00;;;10.90;94.10;;;;;;5272657;27;20376;-68
2024/04/16 14:15:21;;;;;;;0.83;0.77;;;10.60;94.50;;;;;;5285192;27;20996;-70
2024/04/16 14:17:48;;;;;;;0.90;0.80;;;10.30;96.90;;;;;;5255728;27;20733;-68
2024/04/16 14:20:13;;;;;;;0.90;0.80;;;10.10;97.30;;;;;;5264045;27;20922;-71
2024/04/16 14:22:39;;;;;;;0.83;0.77;;;9.90;97.30;;;;;;5272212;27;20464;-69
2024/04/16 14:25:05;;;;;;;0.80;0.80;;;9.60;97.30;;;;;;5279656;26;20595;-68
2024/04/16 14:27:31;;;;;;;1.17;1.07;;;9.30;97.30;;;;;;5272379;27;20287;-67
2024/04/16 14:29:56;;;;;;;0.90;0.80;;;9.00;97.30;;;;;;5276507;27;20470;-67
2024/04/16 14:32:22;;;;;;;0.90;0.80;;;8.70;97.30;;;;;;5276554;26;20236;-67
2024/04/16 14:34:48;;;;;;;1.00;0.90;;;8.50;97.30;;;;;;5306692;26;20236;-67
2024/04/16 14:37:13;;;;;;;1.10;1.00;;;8.30;97.30;;;;;;5276581;27;20349;-68
2024/04/16 14:39:39;;;;;;;0.90;0.80;;;8.30;97.30;;;;;;5306339;26;20764;-69
2024/04/16 14:42:05;;;;;;;0.97;0.87;;;8.30;97.30;;;;;;5275704;27;21071;-68
2024/04/16 14:44:31;;;;;;;0.90;0.80;;;8.20;97.30;;;;;;5319123;26;20248;-67
2024/04/16 14:46:58;;;;;;;1.00;0.90;;;8.10;97.30;;;;;;5239380;27;20476;-69
2024/04/16 14:49:24;;;;;;;0.90;0.80;;;8.10;97.30;;;;;;5295384;26;20576;-67
2024/04/16 14:51:51;;;;;;;1.03;0.93;;;8.00;97.30;;;;;;5283968;26;21016;-69
2024/04/16 14:54:16;;;;;;;1.40;1.30;;;8.00;97.30;;;;;;5274449;27;20466;-67
2024/04/16 14:56:43;;;;;;;1.10;1.00;;;8.10;97.30;;;;;;5274638;26;20948;-68
2024/04/16 14:59:09;;;;;;;1.10;1.00;;;8.20;97.30;;;;;;5274313;27;20240;-67
2024/04/16 15:01:34;;;;;;;0.70;0.70;;;8.30;97.30;;;;;;5304515;26;20594;-67
2024/04/16 15:04:00;;;;;;;0.90;0.80;;;8.30;97.30;;;;;;5266380;27;20606;-68
2024/04/16 15:06:26;;;;;;;0.90;0.80;;;8.50;97.30;;;;;;5303185;26;20724;-67
2024/04/16 15:08:54;;;;;;;1.00;0.90;;;8.50;97.30;;;;;;5301449;26;20523;-68
2024/04/16 15:11:19;;;;;;;0.90;0.80;;;8.50;97.30;;;;;;5303351;26;20236;-68
2024/04/16 15:13:46;;;;;;;1.00;0.90;;;8.60;97.30;;;;;;5273763;26;20578;-67
2024/04/16 15:16:12;;;;;;;1.10;1.00;;;8.60;97.30;;;;;;5304659;26;20278;-68
2024/04/16 15:18:39;;;;;;;0.90;0.80;;;8.60;97.30;;;;;;5274160;26;21332;-67
2024/04/16 15:21:05;;;;;;;1.00;0.90;;;8.70;97.30;;;;;;5304509;26;20228;-67
2024/04/16 15:23:31;;;;;;;1.23;1.13;;;8.60;97.30;;;;;;5269907;26;20588;-67
2024/04/16 15:25:57;;;;;;;1.00;0.90;;;8.60;97.30;;;;;;5268540;27;20229;-66
2024/04/16 15:28:23;;;;;;;0.90;0.80;;;8.70;97.30;;;;;;5275505;27;20918;-67
2024/04/16 15:30:48;;;;;;;1.10;1.00;;;8.80;97.30;;;;;;5284814;26;20268;-69
2024/04/16 15:33:14;;;;;;;0.90;0.80;;;8.90;97.30;;;;;;5311678;26;20460;-67
2024/04/16 15:35:50;;;;;;;0.90;0.80;;;8.90;97.30;;;;;;5270113;27;20667;-67
2024/04/16 15:38:16;;;;;;;0.90;0.80;;;8.90;97.30;;;;;;5271252;27;20233;-69
2024/04/16 15:40:42;;;;;;;1.00;0.90;;;8.90;97.30;;;;;;5276847;27;20480;-67
2024/04/16 15:43:08;;;;;;;1.00;0.90;;;9.00;97.30;;;;;;5283912;26;20574;-68
2024/04/16 15:45:34;;;;;;;1.00;0.90;;;9.10;97.30;;;;;;5271657;27;20468;-68
2024/04/16 15:47:59;;;;;;;0.90;0.80;;;9.20;97.30;;;;;;5271136;27;20267;-68
2024/04/16 15:50:25;;;;;;;0.93;0.83;;;9.10;97.30;;;;;;5258052;27;20288;-68
2024/04/16 15:52:52;;;;;;;1.00;0.90;;;9.10;97.30;;;;;;5300871;27;20587;-68
2024/04/16 15:55:17;;;;;;;1.00;0.90;;;9.10;97.30;;;;;;5287297;27;20341;-68
2024/04/16 15:57:43;;;;;;;0.90;0.80;;;9.10;97.30;;;;;;5288857;27;20483;-68
2024/04/16 16:00:09;;;;;;;0.90;0.80;;;9.10;97.30;;;;;;5306744;26;20240;-68
2024/04/16 16:02:35;;;;;;;1.00;0.90;;;9.00;97.30;;;;;;5290504;27;20315;-68
2024/04/16 16:05:00;;;;;;;0.90;0.80;;;8.90;97.30;;;;;;5283868;27;20487;-67
2024/04/16 16:07:26;;;;;;;0.90;0.80;;;8.90;97.30;;;;;;5284566;27;20267;-67
2024/04/16 16:09:51;;;;;;;1.33;1.23;;;8.90;97.30;;;;;;5306990;26;20279;-68
2024/04/16 16:12:17;;;;;;;1.00;0.90;;;8.80;97.30;;;;;;5291071;27;20240;-68
2024/04/16 16:14:43;;;;;;;0.90;0.80;;;8.80;97.30;;;;;;5276403;27;20245;-67
2024/04/16 16:17:09;;;;;;;1.00;0.90;;;8.90;97.30;;;;;;5281735;26;20928;-68
2024/04/16 16:19:34;;;;;;;1.00;0.90;;;9.20;97.30;;;;;;5272212;27;20241;-68
2024/04/16 16:22:00;;;;;;;1.00;0.90;;;9.40;97.30;;;;;;5272321;27;20292;-68
2024/04/16 16:24:25;;;;;;;1.33;1.23;;;9.80;97.30;;;;;;5268727;27;20237;-67
2024/04/16 16:26:51;;;;;;;0.90;0.80;;;11.00;97.30;;;;;;5272129;27;20765;-68
2024/04/16 16:29:16;;;;;;;2.77;0.90;;;12.40;96.50;;;;;;5298312;26;20363;-68
2024/04/16 16:31:42;;;;;;;0.90;0.80;;;13.60;93.40;;;;;;5320337;26;20322;-68
2024/04/16 16:34:08;;;;;;;1.47;1.37;;;14.40;89.40;;;;;;5271035;27;20748;-68
2024/04/16 16:36:37;;;;;;;0.90;0.80;;;14.70;87.70;;;;;;5271005;26;20601;-69
2024/04/16 16:39:04;;;;;;;0.90;0.80;;;14.90;86.50;;;;;;5306430;26;20535;-69
2024/04/16 16:41:29;;;;;;;0.90;0.80;;;15.40;85.90;;;;;;5306042;26;20513;-68
2024/04/16 16:43:55;;;;;;;0.90;0.80;;;15.60;83.80;;;;;;5306480;26;20564;-67
2024/04/16 16:46:20;;;;;;;1.00;0.90;;;15.70;84.00;;;;;;5276272;27;20240;-68
2024/04/16 16:48:46;;;;;;;0.90;0.80;;;15.50;84.30;;;;;;5299902;26;20584;-68